Time;durP1;ratioP1;P1;durP2;ratioP2;P2;SDS_P1;SDS_P2;PMS_P1;PMS_P2;Temp;Humidity;BMP_temperature;BMP_pressure;BME280_temperature;BME280_humidity;BME280_pressure;Samples;Min_cycle;Max_cycle;Signal;HPM_P1;HPM_P2
2023/06/20 00:00:10;;;;;;;8.40;6.72;;;;;;;;;;5053883;28;20087;-75
2023/06/20 00:02:36;;;;;;;12.95;7.20;;;;;;;;;;5017383;28;20425;-74
2023/06/20 00:05:05;;;;;;;16.92;8.05;;;;;;;;;;5053873;28;20033;-74
2023/06/20 00:07:32;;;;;;;9.95;7.07;;;;;;;;;;5028082;28;20033;-74
2023/06/20 00:09:58;;;;;;;11.40;7.05;;;;;;;;;;5024781;28;20037;-74
2023/06/20 00:12:24;;;;;;;16.85;7.55;;;;;;;;;;5022722;28;20029;-73
2023/06/20 00:14:50;;;;;;;11.48;7.43;;;;;;;;;;5021183;28;20116;-74
2023/06/20 00:17:16;;;;;;;16.08;9.00;;;;;;;;;;5024494;28;20093;-74
2023/06/20 00:19:42;;;;;;;13.60;8.20;;;;;;;;;;5053581;28;20483;-73
2023/06/20 00:22:08;;;;;;;16.17;8.77;;;;;;;;;;5020765;28;20034;-74
2023/06/20 00:24:35;;;;;;;15.45;9.10;;;;;;;;;;5027584;28;20045;-73
2023/06/20 00:27:01;;;;;;;10.15;8.02;;;;;;;;;;5021303;28;20128;-74
2023/06/20 00:29:27;;;;;;;12.55;9.15;;;;;;;;;;5019778;28;20387;-74
2023/06/20 00:31:53;;;;;;;15.13;9.00;;;;;;;;;;5022935;28;20030;-73
2023/06/20 00:34:19;;;;;;;13.77;9.40;;;;;;;;;;5022856;28;20029;-73
2023/06/20 00:36:45;;;;;;;13.55;9.23;;;;;;;;;;5021241;28;20117;-73
2023/06/20 00:39:12;;;;;;;10.82;8.75;;;;;;;;;;5024260;28;20546;-74
2023/06/20 00:41:39;;;;;;;11.60;8.85;;;;;;;;;;5016979;28;20091;-74
2023/06/20 00:44:05;;;;;;;17.00;9.82;;;;;;;;;;5019849;28;20061;-73
2023/06/20 00:46:38;;;;;;;15.70;9.55;;;;;;;;;;5019955;28;20566;-73
2023/06/20 00:49:08;;;;;;;14.50;10.55;;;;;;;;;;5018894;28;20049;-73
2023/06/20 00:51:36;;;;;;;13.55;10.65;;;;;;;;;;5019710;28;20033;-74
2023/06/20 00:54:02;;;;;;;16.83;11.40;;;;;;;;;;5055147;28;20040;-73
2023/06/20 00:56:29;;;;;;;14.95;10.13;;;;;;;;;;5039341;28;20409;-74
2023/06/20 00:58:55;;;;;;;16.13;10.63;;;;;;;;;;5023262;28;20060;-73
2023/06/20 01:01:21;;;;;;;16.92;10.35;;;;;;;;;;5023953;28;20466;-73
2023/06/20 01:03:49;;;;;;;12.75;9.98;;;;;;;;;;5023011;28;20084;-73
2023/06/20 01:06:33;;;;;;;17.33;10.60;;;;;;;;;;5022462;28;20112;-74
2023/06/20 01:09:03;;;;;;;17.42;10.95;;;;;;;;;;5022682;28;20483;-74
2023/06/20 01:11:31;;;;;;;14.77;11.38;;;;;;;;;;5025329;28;20037;-73
2023/06/20 01:14:04;;;;;;;14.15;10.70;;;;;;;;;;5016162;28;20116;-73
2023/06/20 01:16:42;;;;;;;;;;;18.60;99.90;;;;;;5023859;28;20108;-74
2023/06/20 01:19:25;;;;;;;18.23;12.27;;;;;;;;;;5028724;28;19917;-74
2023/06/20 01:21:54;;;;;;;19.92;12.35;;;;;;;;;;5025613;28;20420;-73
2023/06/20 01:24:29;;;;;;;16.83;11.68;;;;;;;;;;5022767;28;20056;-74
2023/06/20 01:26:58;;;;;;;18.15;11.45;;;;;;;;;;5022942;28;20498;-74
2023/06/20 01:29:37;;;;;;;17.08;11.20;;;;;;;;;;5024359;28;20033;-73
2023/06/20 01:32:05;;;;;;;15.73;11.43;;;;;;;;;;5024869;28;20116;-73
2023/06/20 01:34:33;;;;;;;18.00;11.55;;;;;;;;;;5020978;28;20065;-72
2023/06/20 01:37:00;;;;;;;20.85;12.30;;;;;;;;;;5020935;28;20033;-72
2023/06/20 01:39:28;;;;;;;17.67;12.20;;;;;;;;;;5026251;28;20368;-73
2023/06/20 01:41:57;;;;;;;17.15;10.95;;;;;;;;;;5018895;28;20029;-72
2023/06/20 01:44:23;;;;;;;16.48;12.02;;;;;;;;;;5021869;28;20036;-72
2023/06/20 01:46:50;;;;;;;19.60;12.00;;;;;;;;;;5023477;28;20030;-73
2023/06/20 01:49:17;;;;;;;17.08;11.43;;;;;;;;;;5024338;28;20049;-73
2023/06/20 01:51:45;;;;;;;17.42;11.15;;;;;;;;;;5020428;28;20030;-73
2023/06/20 01:54:11;;;;;;;16.05;11.27;;;;;;;;;;5022026;28;20030;-73
2023/06/20 01:56:38;;;;;;;13.75;9.82;;;;;;;;;;5024478;28;20564;-73
2023/06/20 01:59:06;;;;;;;14.35;9.68;;;;;;;;;;5027709;28;20091;-73
2023/06/20 02:01:32;;;;;;;15.10;10.40;;;;;;;;;;5025830;28;20083;-73
2023/06/20 02:03:59;;;;;;;14.02;9.63;;;;;;;;;;5020056;28;20095;-73
2023/06/20 02:06:26;;;;;;;16.38;10.68;;;;;;;;;;5026763;28;20069;-74
2023/06/20 02:08:53;;;;;;;14.82;10.05;;;;;;;;;;5026752;28;20041;-73
2023/06/20 02:11:20;;;;;;;12.68;9.75;;;;;;;;;;5021924;28;20029;-72
2023/06/20 02:13:48;;;;;;;18.70;12.50;;;;;;;;;;5029001;28;20030;-75
2023/06/20 02:16:16;;;;;;;19.40;12.05;;;;;;;;;;5026064;28;20059;-75
2023/06/20 02:18:43;;;;;;;15.75;11.13;;;;;;;;;;5019852;28;20052;-75
2023/06/20 02:21:15;;;;;;;17.88;10.00;;;;;;;;;;5027412;28;20026;-76
2023/06/20 02:23:41;;;;;;;;;;;;;;;;;;5021550;28;20041;-73
2023/06/20 02:26:11;;;;;;;13.35;8.80;;;;;;;;;;5059790;28;19931;-74
2023/06/20 02:28:40;;;;;;;16.25;8.45;;;;;;;;;;5024165;28;20041;-74
2023/06/20 02:31:07;;;;;;;13.75;8.35;;;;;;;;;;5026464;28;20071;-74
2023/06/20 02:33:33;;;;;;;14.95;8.90;;;;;;;;;;5026064;28;20050;-75
2023/06/20 02:36:01;;;;;;;10.27;7.93;;;;;;;;;;5058945;28;20386;-75
2023/06/20 02:38:27;;;;;;;12.05;8.35;;;;;;;;;;5024824;28;20033;-73
2023/06/20 02:40:53;;;;;;;11.38;8.02;;;;;;;;;;5055285;28;20040;-73
2023/06/20 02:43:19;;;;;;;14.60;8.18;;;;;;;;;;5027096;28;20103;-74
2023/06/20 02:45:47;;;;;;;9.30;7.65;;;;;;;;;;5028273;28;20423;-74
2023/06/20 02:48:22;;;;;;;23.35;12.88;;;;;;;;;;5049184;28;20483;-71
2023/06/20 02:50:56;;;;;;;19.35;13.60;;;;;;;;;;5026142;28;20121;-70
2023/06/20 02:53:43;;;;;;;16.70;12.05;;;;;;;;;;5026729;28;20467;-70
2023/06/20 02:56:18;;;;;;;12.70;8.43;;;;;;;;;;5025832;28;20038;-70
2023/06/20 02:58:47;;;;;;;11.70;8.43;;;;;;;;;;5058458;28;20037;-69
2023/06/20 03:01:17;;;;;;;11.50;7.80;;;;;;;;;;5018160;28;20099;-69
2023/06/20 03:03:45;;;;;;;15.23;8.05;;;;;;;;;;5053526;28;20052;-70
2023/06/20 03:06:12;;;;;;;12.98;8.02;;;;;;;;;;5027530;28;20096;-71
2023/06/20 03:08:39;;;;;;;9.35;7.03;;;;;;;;;;5057677;28;20111;-71
2023/06/20 03:11:05;;;;;;;13.02;7.72;;;;;;;;;;5026408;28;20030;-70
2023/06/20 03:13:31;;;;;;;12.40;7.38;;;;;;;;;;5025437;28;20025;-71
2023/06/20 03:15:57;;;;;;;13.35;7.57;;;;;;;;;;5019883;28;20069;-70
2023/06/20 03:18:23;;;;;;;9.90;7.35;;;;;;;;;;5023891;28;20064;-71
2023/06/20 03:20:49;;;;;;;8.57;6.53;;;;;;;;;;5022726;28;20081;-71
2023/06/20 03:23:15;;;;;;;9.88;6.75;;;;;;;;;;5026877;28;20065;-71
2023/06/20 03:25:41;;;;;;;8.30;6.60;;;;;;;;;;5024353;28;20041;-70
2023/06/20 03:28:08;;;;;;;9.20;6.78;;;;;;;;;;5022132;28;20041;-70
2023/06/20 03:30:34;;;;;;;12.00;7.65;;;;;;;;;;5025438;28;20475;-73
2023/06/20 03:33:00;;;;;;;19.52;10.95;;;;;;;;;;5025098;28;20061;-72
2023/06/20 03:35:26;;;;;;;10.52;7.45;;;;;;;;;;5035947;28;20033;-70
2023/06/20 03:37:53;;;;;;;9.85;7.20;;;;;;;;;;5023979;28;20034;-71
2023/06/20 03:40:19;;;;;;;9.20;6.30;;;;;;;;;;5021890;28;20102;-72
2023/06/20 03:42:45;;;;;;;9.35;6.00;;;;;;;;;;5017791;28;20038;-72
2023/06/20 03:45:11;;;;;;;8.73;6.75;;;;;;;;;;5023529;28;20044;-72
2023/06/20 03:47:37;;;;;;;9.98;7.25;;;;;;;;;;5022921;28;20033;-72
2023/06/20 03:50:04;;;;;;;9.60;6.93;;;;;;;;;;5024360;28;20045;-72
2023/06/20 03:52:30;;;;;;;9.70;5.68;;;;;;;;;;5012645;28;20037;-72
2023/06/20 03:54:56;;;;;;;8.20;6.00;;;;;;;;;;5057075;28;20772;-72
2023/06/20 03:57:22;;;;;;;8.48;6.10;;;;;;;;;;5025904;28;20320;-73
2023/06/20 03:59:48;;;;;;;14.38;7.65;;;;;;;;;;5027446;28;20033;-73
2023/06/20 04:02:14;;;;;;;10.43;6.35;;;;;;;;;;5031938;28;20037;-72
2023/06/20 04:04:40;;;;;;;8.15;5.70;;;;;;;;;;5029084;28;20120;-73
2023/06/20 04:07:10;;;;;;;8.43;6.22;;;;;;;;;;5022877;28;20117;-73
2023/06/20 04:09:36;;;;;;;13.15;7.18;;;;;;;;;;5024530;28;20526;-73
2023/06/20 04:12:02;;;;;;;11.18;7.45;;;;;;;;;;5023051;28;20045;-72
2023/06/20 04:14:28;;;;;;;8.32;6.32;;;;;;;;;;5021662;28;20033;-72
2023/06/20 04:16:54;;;;;;;9.18;6.68;;;;;;;;;;5024585;28;20038;-71
2023/06/20 04:19:20;;;;;;;11.30;6.43;;;;;;;;;;5021455;28;20041;-72
2023/06/20 04:21:46;;;;;;;18.73;6.25;;;;;;;;;;5022016;28;20040;-72
2023/06/20 04:24:12;;;;;;;9.48;6.38;;;;;;;;;;5025861;28;20063;-72
2023/06/20 04:26:38;;;;;;;10.07;6.40;;;;;;;;;;5021062;28;20060;-72
2023/06/20 04:29:04;;;;;;;16.10;7.05;;;;;;;;;;5025177;28;20376;-72
2023/06/20 04:31:30;;;;;;;14.10;7.90;;;;;;;;;;5023267;28;20038;-73
2023/06/20 04:33:59;;;;;;;12.13;7.57;;;;;;;;;;5023455;28;20038;-72
2023/06/20 04:36:26;;;;;;;10.40;6.60;;;;;;;;;;5024200;28;20029;-72
2023/06/20 04:38:53;;;;;;;9.52;6.03;;;;;;;;;;5025761;28;20092;-72
2023/06/20 04:41:19;;;;;;;9.27;6.47;;;;;;;;;;5022683;28;20044;-72
2023/06/20 04:43:45;;;;;;;11.95;7.05;;;;;;;;;;5024668;28;20037;-72
2023/06/20 04:46:15;;;;;;;8.55;6.03;;;;;;;;;;5024494;28;20067;-72
2023/06/20 04:48:41;;;;;;;7.03;6.22;;;;;;;;;;5024580;28;20029;-72
2023/06/20 04:51:09;;;;;;;10.68;6.18;;;;;;;;;;5020615;28;20041;-73
2023/06/20 04:53:35;;;;;;;7.55;6.00;;;;;;;;;;5019354;28;20361;-73
2023/06/20 04:56:01;;;;;;;11.00;6.90;;;;;;;;;;5020428;28;20037;-72
2023/06/20 04:58:28;;;;;;;9.70;6.47;;;;;;;;;;5029589;28;20042;-73
2023/06/20 05:00:57;;;;;;;9.30;6.10;;;;;;;;;;5031366;28;20326;-72
2023/06/20 05:03:24;;;;;;;7.65;6.05;;;;;;;;;;5024848;28;20403;-72
2023/06/20 05:05:50;;;;;;;8.50;6.00;;;;;;;;;;5020345;28;20037;-72
2023/06/20 05:08:16;;;;;;;9.80;6.63;;;;;;;;;;5021613;28;20034;-73
2023/06/20 05:10:42;;;;;;;8.45;5.88;;;;;;;;;;5053705;28;20049;-73
2023/06/20 05:13:08;;;;;;;7.68;6.05;;;;;;;;;;5055939;28;20093;-72
2023/06/20 05:15:34;;;;;;;8.10;6.22;;;;;;;;;;5019308;28;20029;-72
2023/06/20 05:18:00;;;;;;;8.75;5.82;;;;;;;;;;5024362;28;20029;-72
2023/06/20 05:20:26;;;;;;;10.00;6.30;;;;;;;;;;5019823;28;20037;-72
2023/06/20 05:22:52;;;;;;;9.98;6.53;;;;;;;;;;5023557;28;20487;-72
2023/06/20 05:25:18;;;;;;;9.55;6.57;;;;;;;;;;5014394;28;20072;-72
2023/06/20 05:27:46;;;;;;;13.95;6.65;;;;;;;;;;5017826;28;20048;-72
2023/06/20 05:30:12;;;;;;;7.93;6.75;;;;;;;;;;5021773;28;20042;-72
2023/06/20 05:32:38;;;;;;;7.53;6.13;;;;;;;;;;5026138;28;20056;-71
2023/06/20 05:35:07;;;;;;;11.38;7.20;;;;;;;;;;5019637;28;20042;-75
2023/06/20 05:37:36;;;;;;;14.48;6.65;;;;;;;;;;5021789;28;20030;-73
2023/06/20 05:40:05;;;;;;;9.32;7.00;;;;;;;;;;5022842;28;20060;-74
2023/06/20 05:42:31;;;;;;;9.93;7.28;;;;;;;;;;5020343;28;20041;-74
2023/06/20 05:44:57;;;;;;;15.05;7.95;;;;;;;;;;5024340;28;21945;-75
2023/06/20 05:47:23;;;;;;;8.48;6.55;;;;;;;;;;5017616;28;20034;-72
2023/06/20 05:49:49;;;;;;;22.45;14.45;;;;;;;;;;5020932;28;20060;-71
2023/06/20 05:52:15;;;;;;;15.95;11.73;;;;;;;;;;5022578;28;20048;-72
2023/06/20 05:54:43;;;;;;;10.63;7.28;;;;;;;;;;5024516;28;20076;-73
2023/06/20 05:57:09;;;;;;;12.48;8.00;;;;;;;;;;5024373;28;20025;-72
2023/06/20 05:59:35;;;;;;;10.48;6.70;;;;;;;;;;5024387;28;20040;-73
2023/06/20 06:02:01;;;;;;;11.18;6.78;;;;;;;;;;5022240;28;20048;-72
2023/06/20 06:04:27;;;;;;;13.32;10.63;;;;;;;;;;5038714;28;20379;-74
2023/06/20 06:06:53;;;;;;;30.67;20.92;;;;;;;;;;5023657;28;20053;-73
2023/06/20 06:09:20;;;;;;;27.15;20.35;;;;;;;;;;5023240;28;20049;-74
2023/06/20 06:11:46;;;;;;;9.45;7.18;;;;;;;;;;5021853;28;20036;-73
2023/06/20 06:14:15;;;;;;;12.55;7.15;;;;;;;;;;5018727;28;20223;-74
2023/06/20 06:16:41;;;;;;;10.27;7.22;;;;;;;;;;5023815;28;20037;-73
2023/06/20 06:19:08;;;;;;;11.93;6.18;;;;;;;;;;5021781;28;20490;-73
2023/06/20 06:21:34;;;;;;;12.55;7.10;;;;;;;;;;5020548;28;20040;-73
2023/06/20 06:24:00;;;;;;;12.65;7.28;;;;;;;;;;5021664;28;20065;-74
2023/06/20 06:26:26;;;;;;;10.43;7.00;;;;;;;;;;5053795;28;20033;-75
2023/06/20 06:28:53;;;;;;;10.68;6.53;;;;;;;;;;5023420;28;20509;-77
2023/06/20 06:31:25;;;;;;;8.50;6.80;;;;;;;;;;5021944;28;20100;-75
2023/06/20 06:33:52;;;;;;;8.87;6.40;;;;;;;;;;5023064;28;20029;-74
2023/06/20 06:36:18;;;;;;;10.00;7.00;;;;;;;;;;5023033;28;20753;-74
2023/06/20 06:38:49;;;;;;;8.48;6.30;;;;;;;;;;5010610;28;20467;-74
2023/06/20 06:41:19;;;;;;;11.57;7.43;;;;;;;;;;5023220;28;20033;-73
2023/06/20 06:43:45;;;;;;;10.10;7.25;;;;;;;;;;5025006;28;20045;-73
2023/06/20 06:46:11;;;;;;;10.60;7.57;;;;;;;;;;5019378;28;20056;-77
2023/06/20 06:48:37;;;;;;;12.60;7.32;;;;;;;;;;5040826;28;20086;-75
2023/06/20 06:51:04;;;;;;;12.25;7.10;;;;;;;;;;5022275;28;20105;-75
2023/06/20 06:53:30;;;;;;;22.35;18.30;;;;;;;;;;5022634;28;20032;-72
2023/06/20 06:55:56;;;;;;;15.02;11.32;;;;;;;;;;5026205;28;20041;-72
2023/06/20 06:58:22;;;;;;;14.52;8.00;;;;;;;;;;5023830;28;20529;-70
2023/06/20 07:00:48;;;;;;;9.45;7.30;;;;;;;;;;5025087;28;20192;-70
2023/06/20 07:03:15;;;;;;;11.23;7.03;;;;;;;;;;5024304;28;20053;-69
2023/06/20 07:05:41;;;;;;;8.95;6.97;;;;;;;;;;5024110;28;20061;-80
2023/06/20 07:08:07;;;;;;;11.95;7.55;;;;;;;;;;5030188;28;20074;-83
2023/06/20 07:10:33;;;;;;;9.52;7.55;;;;;;;;;;5031688;28;20044;-79
2023/06/20 07:13:00;;;;;;;12.48;6.88;;;;;;;;;;5033529;28;20025;-81
2023/06/20 07:15:26;;;;;;;13.05;7.05;;;;;;;;;;5032119;28;20356;-82
2023/06/20 07:17:52;;;;;;;9.02;6.63;;;;;;;;;;5031216;28;20029;-80
2023/06/20 07:20:18;;;;;;;10.73;7.28;;;;;;;;;;5031876;28;20475;-78
2023/06/20 07:22:47;;;;;;;11.13;8.13;;;;;;;;;;5033228;28;20037;-81
2023/06/20 07:25:13;;;;;;;11.75;7.13;;;;;;;;;;5030925;28;20045;-78
2023/06/20 07:27:39;;;;;;;11.15;8.27;;;;;;;;;;5014752;28;20077;-82
2023/06/20 07:30:05;;;;;;;10.60;7.65;;;;;;;;;;5040765;28;20474;-80
2023/06/20 07:32:31;;;;;;;9.77;6.88;;;;;;;;;;5032782;28;20025;-80
2023/06/20 07:34:57;;;;;;;8.02;7.22;;;;;;;;;;5046403;28;20041;-81
2023/06/20 07:37:23;;;;;;;8.10;6.90;;;;;;;;;;5032226;28;20095;-80
2023/06/20 07:39:49;;;;;;;11.88;7.30;;;;;;;;;;5030159;28;20029;-80
2023/06/20 07:42:15;;;;;;;9.73;8.05;;;;;;;;;;5031137;28;20691;-80
2023/06/20 07:44:41;;;;;;;11.40;7.78;;;;;;;;;;5033064;28;20052;-80
2023/06/20 07:47:07;;;;;;;11.50;7.65;;;;;;;;;;5032148;28;20698;-81
2023/06/20 07:49:33;;;;;;;11.55;8.43;;;;;;;;;;5032109;28;20073;-81
2023/06/20 07:51:59;;;;;;;8.88;7.82;;;;;;;;;;5032508;28;20053;-81
2023/06/20 07:54:26;;;;;;;12.98;7.53;;;;;;;;;;5030832;28;20134;-82
2023/06/20 07:56:52;;;;;;;10.32;7.43;;;;;;;;;;5029448;28;20064;-83
2023/06/20 07:59:19;;;;;;;12.07;7.82;;;;;;;;;;5030714;28;20346;-80
2023/06/20 08:01:45;;;;;;;13.02;7.88;;;;;;;;;;5035153;28;20052;-84
2023/06/20 08:04:11;;;;;;;10.80;7.72;;;;;;;;;;5032251;28;20017;-82
2023/06/20 08:06:38;;;;;;;13.13;6.93;;;;;;;;;;5062672;28;20037;-80
2023/06/20 08:09:05;;;;;;;10.35;7.57;;;;;;;;;;5031565;28;20040;-82
2023/06/20 08:11:31;;;;;;;9.85;7.65;;;;;;;;;;5031733;28;20466;-80
2023/06/20 08:13:57;;;;;;;7.78;6.97;;;;;;;;;;5022661;28;20521;-79
2023/06/20 08:16:23;;;;;;;9.80;6.97;;;;;;;;;;5029687;28;20118;-82
2023/06/20 08:18:49;;;;;;;9.80;6.78;;;;;;;;;;5029294;28;20532;-82
2023/06/20 08:21:15;;;;;;;10.23;7.18;;;;;;;;;;5030163;28;20048;-81
2023/06/20 08:23:41;;;;;;;7.70;5.90;;;;;;;;;;5031088;28;20538;-81
2023/06/20 08:26:07;;;;;;;9.38;6.90;;;;;;;;;;5031556;28;20156;-81
2023/06/20 08:28:33;;;;;;;6.68;5.82;;;;;;;;;;5044221;28;20037;-83
2023/06/20 08:30:59;;;;;;;10.82;6.13;;;;;;;;;;5042597;28;20037;-82
2023/06/20 08:33:25;;;;;;;7.22;6.22;;;;;;;;;;5035447;28;20113;-83
2023/06/20 08:35:51;;;;;;;6.55;5.93;;;;;;;;;;5031715;28;20056;-82
2023/06/20 08:38:17;;;;;;;6.53;5.80;;;;;;;;;;5031202;28;20076;-83
2023/06/20 08:40:43;;;;;;;8.95;6.65;;;;;;;;;;5031412;28;20034;-83
2023/06/20 08:43:13;;;;;;;7.72;5.50;;;;;;;;;;5030008;28;20029;-81
2023/06/20 08:45:39;;;;;;;7.10;5.43;;;;;;;;;;5029924;28;20029;-81
2023/06/20 08:48:05;;;;;;;8.35;6.43;;;;;;;;;;5030790;28;20038;-83
2023/06/20 08:50:32;;;;;;;10.43;7.10;;;;;;;;;;5030899;28;20034;-83
2023/06/20 08:53:01;;;;;;;12.30;6.22;;;;;;;;;;5031977;28;20021;-82
2023/06/20 08:55:30;;;;;;;9.48;6.15;;;;;;;;;;5029921;28;20025;-83
2023/06/20 08:57:56;;;;;;;10.18;6.05;;;;;;;;;;5031118;28;20109;-83
2023/06/20 09:00:23;;;;;;;11.13;6.20;;;;;;;;;;5030715;28;20037;-83
2023/06/20 09:02:52;;;;;;;8.43;6.30;;;;;;;;;;5029679;28;20029;-86
2023/06/20 09:05:18;;;;;;;7.20;5.50;;;;;;;;;;5033721;28;20033;-84
2023/06/20 09:07:44;;;;;;;7.43;5.85;;;;;;;;;;5026791;28;20390;-84
2023/06/20 09:10:14;;;;;;;7.30;5.63;;;;;;;;;;5028662;28;20379;-83
2023/06/20 09:12:49;;;;;;;10.93;5.47;;;;;;;;;;5020594;28;20075;-84
2023/06/20 09:15:16;;;;;;;6.80;5.03;;;;;;;;;;5054598;28;20327;-83
2023/06/20 09:17:43;;;;;;;7.43;5.65;;;;;;;;;;5028665;28;20086;-82
2023/06/20 09:20:14;;;;;;;8.77;5.35;;;;;;;;;;5028423;28;20029;-82
2023/06/20 09:22:40;;;;;;;12.67;5.57;;;;;;;;;;5026545;28;20022;-84
2023/06/20 09:25:07;;;;;;;10.13;6.00;;;;;;;;;;5012406;28;20042;-83
2023/06/20 09:27:34;;;;;;;9.18;5.45;;;;;;;;;;5029098;28;20080;-85
2023/06/20 09:30:01;;;;;;;7.28;5.57;;;;;;;;;;5031043;28;20029;-81
2023/06/20 09:32:27;;;;;;;7.05;5.88;;;;;;;;;;5033923;28;20080;-83
2023/06/20 09:34:53;;;;;;;7.13;5.55;;;;;;;;;;5031050;28;20033;-85
2023/06/20 09:37:19;;;;;;;10.07;6.45;;;;;;;;;;5028316;28;20037;-80
2023/06/20 09:39:45;;;;;;;7.30;5.95;;;;;;;;;;5030361;28;20133;-85
2023/06/20 09:42:14;;;;;;;7.22;5.57;;;;;;;;;;5030950;28;20025;-85
2023/06/20 09:44:41;;;;;;;6.28;5.65;;;;;;;;;;5030834;28;20029;-83
2023/06/20 09:47:08;;;;;;;8.93;6.18;;;;;;;;;;5026672;28;20487;-83
2023/06/20 09:49:35;;;;;;;6.65;5.47;;;;;;;;;;5029600;28;20337;-84
2023/06/20 09:52:07;;;;;;;5.93;5.10;;;;;;;;;;5029827;28;20053;-84
2023/06/20 09:54:39;;;;;;;7.30;5.60;;;30.70;99.90;;;;;;5027137;28;20067;-84
2023/06/20 09:57:08;;;;;;;;;;;30.60;99.90;;;;;;5031372;28;20061;-87
2023/06/20 09:59:36;;;;;;;10.57;5.38;;;;;;;;;;5030378;28;19999;-85
2023/06/20 10:02:07;;;;;;;8.38;5.25;;;30.50;99.90;;;;;;5062766;28;20034;-87
2023/06/20 10:04:39;;;;;;;6.05;5.32;;;30.90;99.90;;;;;;5027939;28;20033;-86
2023/06/20 10:07:05;;;;;;;6.47;5.88;;;31.10;99.90;;;;;;5020126;28;20025;-76
2023/06/20 10:09:31;;;;;;;10.25;5.13;;;31.00;99.90;;;;;;5042546;28;20358;-79
2023/06/20 10:11:57;;;;;;;7.95;4.95;;;31.20;99.90;;;;;;5019786;28;20029;-82
2023/06/20 10:14:24;;;;;;;6.38;5.18;;;31.30;99.90;;;;;;5018067;28;20380;-85
2023/06/20 10:16:52;;;;;;;5.82;5.18;;;31.40;99.90;;;;;;5030065;28;20112;-83
2023/06/20 10:19:19;;;;;;;9.88;5.30;;;;;;;;;;5021747;28;20483;-84
2023/06/20 10:22:14;;;;;;;6.40;4.32;;;;;;;;;;5026827;28;20057;-84
2023/06/20 10:24:41;;;;;;;7.28;4.70;;;;;;;;;;5040819;28;20140;-84
2023/06/20 10:27:07;;;;;;;9.48;4.97;;;;;;;;;;5032828;28;20030;-85
2023/06/20 10:29:42;;;;;;;6.03;4.93;;;;;;;;;;5030123;28;20080;-85
2023/06/20 10:32:09;;;;;;;5.43;4.90;;;;;;;;;;5055960;28;20045;-83
2023/06/20 10:34:42;;;;;;;6.93;4.53;;;;;;;;;;5060723;28;20079;-84
2023/06/20 10:37:16;;;;;;;6.20;3.97;;;;;;;;;;5049590;28;20149;-87
2023/06/20 10:39:52;;;;;;;6.43;4.30;;;;;;;;;;5024356;28;20046;-87
2023/06/20 10:42:39;;;;;;;4.53;4.13;;;;;;;;;;5040087;28;20034;-86
2023/06/20 10:45:18;;;;;;;6.32;3.85;;;;;;;;;;5031421;28;20030;-84
2023/06/20 10:47:45;;;;;;;6.05;3.85;;;;;;;;;;5029864;28;20470;-86
2023/06/20 10:50:11;;;;;;;5.28;4.38;;;;;;;;;;5047665;28;20526;-89
2023/06/20 10:52:37;;;;;;;6.78;4.25;;;;;;;;;;5061000;28;20029;-88
2023/06/20 10:55:07;;;;;;;5.88;4.75;;;;;;;;;;5036014;28;20080;-87
2023/06/20 10:57:35;;;;;;;5.75;4.22;;;;;;;;;;5031992;28;20039;-84
2023/06/20 11:00:06;;;;;;;4.63;3.30;;;;;;;;;;5033275;28;20033;-85
2023/06/20 11:02:34;;;;;;;4.05;3.65;;;;;;;;;;5033524;28;20013;-86
2023/06/20 11:05:00;;;;;;;5.03;3.65;;;;;;;;;;5022008;28;20045;-94
2023/06/20 11:07:27;;;;;;;4.45;3.45;;;;;;;;;;5028997;28;20029;-88
2023/06/20 11:09:53;;;;;;;11.77;3.17;;;;;;;;;;5038441;28;20104;-85
2023/06/20 11:12:19;;;;;;;4.25;3.10;;;;;;;;;;5029829;28;20167;-89
2023/06/20 11:14:45;;;;;;;6.63;3.58;;;;;;;;;;5024394;28;20114;-87
2023/06/20 11:17:11;;;;;;;5.50;3.15;;;;;;;;;;5024635;28;20033;-84
2023/06/20 11:19:39;;;;;;;3.80;3.50;;;;;;;;;;5030797;28;20387;-86
2023/06/20 11:22:05;;;;;;;5.97;3.55;;;;;;;;;;5033064;28;20018;-86
2023/06/20 11:24:33;;;;;;;7.20;3.25;;;;;;;;;;5018475;28;20053;-89
2023/06/20 11:27:14;;;;;;;4.82;3.50;;;;;;;;;;5057643;28;20077;-89
2023/06/20 11:29:41;;;;;;;4.78;3.15;;;;;;;;;;5030132;28;20523;-90
2023/06/20 11:32:10;;;;;;;4.78;3.30;;;;;;;;;;5023107;28;20030;-79
2023/06/20 11:34:59;;;;;;;4.13;3.47;;;;;;;;;;5014207;28;20087;-81
2023/06/20 11:37:25;;;;;;;7.50;3.05;;;;;;;;;;5032220;28;20029;-81
2023/06/20 11:39:54;;;;;;;3.28;2.95;;;;;;;;;;5031625;28;20022;-82
2023/06/20 11:42:20;;;;;;;5.43;3.38;;;;;;;;;;5032829;28;20064;-82
2023/06/20 11:44:46;;;;;;;8.10;3.63;;;;;;;;;;5031942;28;20026;-82
2023/06/20 11:47:12;;;;;;;5.30;3.50;;;;;;;;;;5031357;28;20079;-81
2023/06/20 11:49:41;;;;;;;7.20;3.17;;;;;;;;;;5013935;28;20038;-81
2023/06/20 11:52:08;;;;;;;13.75;3.65;;;;;;;;;;5031539;28;20079;-82
2023/06/20 11:54:47;;;;;;;5.63;3.40;;;;;;;;;;5032524;28;20503;-81
2023/06/20 11:57:23;;;;;;;5.03;3.65;;;;;;;;;;5016038;28;20159;-83
2023/06/20 11:59:49;;;;;;;8.10;4.05;;;;;;;;;;5032331;28;20030;-82
2023/06/20 12:02:15;;;;;;;6.65;3.60;;;;;;;;;;5032481;28;20038;-83
2023/06/20 12:04:43;;;;;;;5.25;3.65;;;;;;;;;;5031553;28;20140;-82
2023/06/20 12:07:09;;;;;;;5.43;4.05;;;;;;;;;;5030125;28;20029;-82
2023/06/20 12:09:42;;;;;;;3.55;3.25;;;;;;;;;;5030817;28;20033;-82
2023/06/20 12:12:09;;;;;;;4.57;3.83;;;;;;;;;;5030561;28;20060;-81
2023/06/20 12:14:37;;;;;;;3.70;3.40;;;;;;;;;;5029470;28;20467;-83
2023/06/20 12:17:04;;;;;;;6.00;3.80;;;;;;;;;;5029849;28;20116;-81
2023/06/20 12:19:31;;;;;;;3.97;3.58;;;;;;;;;;5031721;28;20490;-80
2023/06/20 12:21:59;;;;;;;7.45;3.60;;;;;;;;;;5029004;28;20040;-82
2023/06/20 12:24:27;;;;;;;6.35;4.00;;;;;;;;;;5030550;28;20570;-80
2023/06/20 12:26:55;;;;;;;5.97;3.90;;;;;;;;;;5056790;28;20183;-83
2023/06/20 12:29:21;;;;;;;4.50;4.10;;;;;;;;;;5031712;28;20044;-82
2023/06/20 12:31:47;;;;;;;8.05;3.67;;;;;;;;;;5063881;28;20506;-82
2023/06/20 12:34:14;;;;;;;7.18;3.78;;;;;;;;;;5031561;28;20112;-82
2023/06/20 12:36:40;;;;;;;5.53;3.60;;;;;;;;;;5030719;28;20037;-83
2023/06/20 12:39:06;;;;;;;5.53;3.65;;;;;;;;;;5029383;28;20034;-85
2023/06/20 12:41:33;;;;;;;7.30;4.00;;;;;;;;;;5031549;28;20091;-81
2023/06/20 12:43:59;;;;;;;4.75;3.80;;;;;;;;;;5032340;28;20025;-82
2023/06/20 12:46:25;;;;;;;4.57;3.72;;;;;;;;;;5030009;28;20033;-82
2023/06/20 12:48:51;;;;;;;4.43;3.30;;;;;;;;;;5031662;28;20022;-82
2023/06/20 12:51:17;;;;;;;3.67;3.38;;;;;;;;;;5029987;28;20045;-81
2023/06/20 12:53:43;;;;;;;4.15;3.47;;;;;;;;;;5030493;28;20040;-81
2023/06/20 12:56:09;;;;;;;3.88;3.53;;;;;;;;;;5042268;28;20045;-82
2023/06/20 12:58:35;;;;;;;4.85;3.90;;;;;;;;;;5030931;28;20025;-84
2023/06/20 13:01:02;;;;;;;7.25;3.47;;;;;;;;;;5025037;28;20107;-80
2023/06/20 13:03:28;;;;;;;9.05;3.20;;;;;;;;;;5018355;28;20114;-81
2023/06/20 13:05:55;;;;;;;3.35;3.05;;;;;;;;;;5021451;28;20463;-85
2023/06/20 13:08:21;;;;;;;8.85;3.38;;;;;;;;;;5012664;28;20530;-89
2023/06/20 13:10:47;;;;;;;4.07;3.67;;;;;;;;;;5022490;28;20045;-87
2023/06/20 13:13:13;;;;;;;3.65;3.35;;;;;;;;;;5025529;28;20712;-89
2023/06/20 13:15:39;;;;;;;5.45;3.42;;;;;;;;;;5017403;28;20053;-85
2023/06/20 13:18:08;;;;;;;4.10;3.15;;;;;;;;;;5014844;28;20041;-86
2023/06/20 13:20:34;;;;;;;5.45;3.33;;;;;;;;;;5051049;28;20025;-90
2023/06/20 13:23:02;;;;;;;3.50;3.20;;;;;;;;;;5024277;28;20044;-87
2023/06/20 13:25:28;;;;;;;5.35;3.17;;;;;;;;;;5021428;28;20495;-89
2023/06/20 13:27:56;;;;;;;7.13;3.10;;;;;;;;;;5018545;28;20032;-89
2023/06/20 13:30:22;;;;;;;4.72;3.35;;;;;;;;;;5019167;28;20128;-87
2023/06/20 13:32:49;;;;;;;4.28;3.25;;;;;;;;;;5022868;28;20037;-87
2023/06/20 13:35:17;;;;;;;7.32;3.30;;;;;;;;;;5022602;28;20174;-89
2023/06/20 13:37:44;;;;;;;8.55;3.20;;;;;;;;;;5020536;28;20040;-87
2023/06/20 13:40:12;;;;;;;4.07;3.40;;;;;;;;;;5029404;28;20033;-87
2023/06/20 13:42:42;;;;;;;5.50;3.53;;;;;;;;;;5024993;28;20463;-87
2023/06/20 13:45:15;;;;;;;7.65;3.65;;;;;;;;;;5021600;28;20558;-86
2023/06/20 13:47:41;;;;;;;3.42;3.13;;;;;;;;;;5021861;28;20094;-88
2023/06/20 13:50:11;;;;;;;4.43;3.58;;;;;;;;;;5055821;28;20083;-87
2023/06/20 13:52:37;;;;;;;3.65;3.05;;;;;;;;;;5027180;28;20502;-89
2023/06/20 13:55:04;;;;;;;5.43;3.45;;;;;;;;;;5029326;28;20105;-89
2023/06/20 13:57:30;;;;;;;5.93;3.10;;;;;;;;;;5060632;28;20083;-88
2023/06/20 13:59:57;;;;;;;5.15;3.30;;;;;;;;;;5026933;28;20037;-85
2023/06/20 14:02:23;;;;;;;3.70;3.08;;;;;;;;;;5025654;28;20094;-79
2023/06/20 14:04:49;;;;;;;5.60;3.22;;;;;;;;;;5028539;28;20363;-78
2023/06/20 14:07:15;;;;;;;3.70;3.00;;;;;;;;;;5026516;28;20045;-77
2023/06/20 14:09:41;;;;;;;6.00;2.80;;;;;;;;;;5025868;28;20367;-78
2023/06/20 14:12:08;;;;;;;3.83;3.03;;;;;;;;;;5027828;28;20529;-79
2023/06/20 14:14:34;;;;;;;6.97;3.05;;;;;;;;;;5058227;28;20495;-78
2023/06/20 14:17:00;;;;;;;4.95;3.13;;;;;;;;;;5026868;28;21353;-85
2023/06/20 14:19:26;;;;;;;5.50;3.17;;;;;;;;;;5037713;28;20043;-83
2023/06/20 14:21:52;;;;;;;4.10;3.22;;;;;;;;;;5017519;28;20026;-83
2023/06/20 14:24:18;;;;;;;4.20;3.00;;;;;;;;;;5027100;28;20068;-85
2023/06/20 14:26:44;;;;;;;4.40;3.17;;;;;;;;;;5026331;28;20064;-84
2023/06/20 14:29:11;;;;;;;4.05;3.00;;;;;;;;;;5060686;28;20071;-83
2023/06/20 14:31:37;;;;;;;4.90;2.90;;;;;;;;;;5023682;28;20044;-93
2023/06/20 14:34:06;;;;;;;3.40;2.88;;;;;;;;;;5030103;28;20045;-93